sensor_id;sensor_type;location;lat;lon;timestamp;temperature;humidity
63013;DHT22;62113;45.624;11.700;2024-02-21T00:00:06;14.20;57.80
63013;DHT22;62113;45.624;11.700;2024-02-21T00:02:32;14.10;57.90
63013;DHT22;62113;45.624;11.700;2024-02-21T00:04:58;14.10;57.90
63013;DHT22;62113;45.624;11.700;2024-02-21T00:07:24;14.10;57.90
63013;DHT22;62113;45.624;11.700;2024-02-21T00:09:49;14.10;58.00
63013;DHT22;62113;45.624;11.700;2024-02-21T00:12:15;14.00;58.00
63013;DHT22;62113;45.624;11.700;2024-02-21T00:14:40;14.00;57.90
63013;DHT22;62113;45.624;11.700;2024-02-21T00:17:06;14.00;57.80
63013;DHT22;62113;45.624;11.700;2024-02-21T00:19:34;14.00;57.80
63013;DHT22;62113;45.624;11.700;2024-02-21T00:21:59;13.90;57.80
63013;DHT22;62113;45.624;11.700;2024-02-21T00:24:25;13.90;57.70
63013;DHT22;62113;45.624;11.700;2024-02-21T00:26:50;13.90;57.80
63013;DHT22;62113;45.624;11.700;2024-02-21T00:29:16;13.80;57.80
63013;DHT22;62113;45.624;11.700;2024-02-21T00:31:41;13.80;57.90
63013;DHT22;62113;45.624;11.700;2024-02-21T00:34:07;13.80;57.90
63013;DHT22;62113;45.624;11.700;2024-02-21T00:36:33;13.70;57.90
63013;DHT22;62113;45.624;11.700;2024-02-21T00:38:58;13.70;57.80
63013;DHT22;62113;45.624;11.700;2024-02-21T00:41:24;13.70;57.80
63013;DHT22;62113;45.624;11.700;2024-02-21T00:43:50;13.70;57.80
63013;DHT22;62113;45.624;11.700;2024-02-21T00:46:15;13.70;57.70
63013;DHT22;62113;45.624;11.700;2024-02-21T00:48:41;13.70;57.70
63013;DHT22;62113;45.624;11.700;2024-02-21T00:51:07;13.70;57.60
63013;DHT22;62113;45.624;11.700;2024-02-21T00:53:32;13.70;57.50
63013;DHT22;62113;45.624;11.700;2024-02-21T00:55:58;13.60;57.40
63013;DHT22;62113;45.624;11.700;2024-02-21T00:58:23;13.70;57.40
63013;DHT22;62113;45.624;11.700;2024-02-21T01:00:49;13.60;57.30
63013;DHT22;62113;45.624;11.700;2024-02-21T01:03:15;13.60;57.30
63013;DHT22;62113;45.624;11.700;2024-02-21T01:05:40;13.50;57.30
63013;DHT22;62113;45.624;11.700;2024-02-21T01:08:06;13.50;57.20
63013;DHT22;62113;45.624;11.700;2024-02-21T01:10:31;13.50;57.10
63013;DHT22;62113;45.624;11.700;2024-02-21T01:12:57;13.40;57.00
63013;DHT22;62113;45.624;11.700;2024-02-21T01:15:23;13.40;56.90
63013;DHT22;62113;45.624;11.700;2024-02-21T01:17:48;13.40;56.80
63013;DHT22;62113;45.624;11.700;2024-02-21T01:20:16;13.30;56.70
63013;DHT22;62113;45.624;11.700;2024-02-21T01:22:42;13.30;56.70
63013;DHT22;62113;45.624;11.700;2024-02-21T01:25:08;13.30;56.70
63013;DHT22;62113;45.624;11.700;2024-02-21T01:27:34;13.30;56.70
63013;DHT22;62113;45.624;11.700;2024-02-21T01:29:59;13.20;56.70
63013;DHT22;62113;45.624;11.700;2024-02-21T01:32:25;13.20;56.70
63013;DHT22;62113;45.624;11.700;2024-02-21T01:34:51;13.20;56.70
63013;DHT22;62113;45.624;11.700;2024-02-21T01:37:16;13.20;56.80
63013;DHT22;62113;45.624;11.700;2024-02-21T01:39:42;13.20;56.80
63013;DHT22;62113;45.624;11.700;2024-02-21T01:42:08;13.20;56.70
63013;DHT22;62113;45.624;11.700;2024-02-21T01:44:34;13.10;56.80
63013;DHT22;62113;45.624;11.700;2024-02-21T01:47:00;13.10;56.90
63013;DHT22;62113;45.624;11.700;2024-02-21T01:49:26;13.10;56.90
63013;DHT22;62113;45.624;11.700;2024-02-21T01:51:52;13.10;57.00
63013;DHT22;62113;45.624;11.700;2024-02-21T01:54:19;13.00;56.90
63013;DHT22;62113;45.624;11.700;2024-02-21T01:56:45;13.00;56.90
63013;DHT22;62113;45.624;11.700;2024-02-21T01:59:12;13.00;56.90
63013;DHT22;62113;45.624;11.700;2024-02-21T02:01:38;13.00;56.80
63013;DHT22;62113;45.624;11.700;2024-02-21T02:04:04;13.00;56.70
63013;DHT22;62113;45.624;11.700;2024-02-21T02:06:31;13.00;56.60
63013;DHT22;62113;45.624;11.700;2024-02-21T02:08:57;12.90;56.60
63013;DHT22;62113;45.624;11.700;2024-02-21T02:11:23;12.90;56.50
63013;DHT22;62113;45.624;11.700;2024-02-21T02:13:48;12.90;56.50
63013;DHT22;62113;45.624;11.700;2024-02-21T02:16:14;12.80;56.50
63013;DHT22;62113;45.624;11.700;2024-02-21T02:18:39;12.80;56.50
63013;DHT22;62113;45.624;11.700;2024-02-21T02:21:10;12.80;56.60
63013;DHT22;62113;45.624;11.700;2024-02-21T02:23:38;12.70;56.60
63013;DHT22;62113;45.624;11.700;2024-02-21T02:26:03;12.70;56.60
63013;DHT22;62113;45.624;11.700;2024-02-21T02:28:29;12.70;56.50
63013;DHT22;62113;45.624;11.700;2024-02-21T02:30:55;12.70;56.60
63013;DHT22;62113;45.624;11.700;2024-02-21T02:33:20;12.70;56.60
63013;DHT22;62113;45.624;11.700;2024-02-21T02:35:46;12.70;56.60
63013;DHT22;62113;45.624;11.700;2024-02-21T02:38:12;12.70;56.70
63013;DHT22;62113;45.624;11.700;2024-02-21T02:40:39;12.70;56.60
63013;DHT22;62113;45.624;11.700;2024-02-21T02:43:05;12.70;56.60
63013;DHT22;62113;45.624;11.700;2024-02-21T02:45:31;12.60;56.60
63013;DHT22;62113;45.624;11.700;2024-02-21T02:47:57;12.70;56.50
63013;DHT22;62113;45.624;11.700;2024-02-21T02:50:24;12.60;56.50
63013;DHT22;62113;45.624;11.700;2024-02-21T02:52:50;12.60;56.40
63013;DHT22;62113;45.624;11.700;2024-02-21T02:55:16;12.60;56.30
63013;DHT22;62113;45.624;11.700;2024-02-21T02:57:41;12.60;56.30
63013;DHT22;62113;45.624;11.700;2024-02-21T03:00:08;12.50;56.40
63013;DHT22;62113;45.624;11.700;2024-02-21T03:02:35;12.50;56.40
63013;DHT22;62113;45.624;11.700;2024-02-21T03:05:00;12.50;56.40
63013;DHT22;62113;45.624;11.700;2024-02-21T03:07:26;12.50;56.50
63013;DHT22;62113;45.624;11.700;2024-02-21T03:09:52;12.50;56.50
63013;DHT22;62113;45.624;11.700;2024-02-21T03:12:18;12.40;56.30
63013;DHT22;62113;45.624;11.700;2024-02-21T03:14:50;12.40;56.30
63013;DHT22;62113;45.624;11.700;2024-02-21T03:17:16;12.30;56.30
63013;DHT22;62113;45.624;11.700;2024-02-21T03:19:41;12.30;56.40
63013;DHT22;62113;45.624;11.700;2024-02-21T03:22:07;12.30;56.40
63013;DHT22;62113;45.624;11.700;2024-02-21T03:24:33;12.30;56.40
63013;DHT22;62113;45.624;11.700;2024-02-21T03:26:58;12.30;56.30
63013;DHT22;62113;45.624;11.700;2024-02-21T03:29:25;12.20;56.30
63013;DHT22;62113;45.624;11.700;2024-02-21T03:31:51;12.20;56.30
63013;DHT22;62113;45.624;11.700;2024-02-21T03:34:16;12.20;56.20
63013;DHT22;62113;45.624;11.700;2024-02-21T03:36:42;12.30;56.10
63013;DHT22;62113;45.624;11.700;2024-02-21T03:39:08;12.20;56.00
63013;DHT22;62113;45.624;11.700;2024-02-21T03:41:34;12.20;55.90
63013;DHT22;62113;45.624;11.700;2024-02-21T03:44:00;12.30;55.80
63013;DHT22;62113;45.624;11.700;2024-02-21T03:46:27;12.30;55.60
63013;DHT22;62113;45.624;11.700;2024-02-21T03:48:52;12.30;55.40
63013;DHT22;62113;45.624;11.700;2024-02-21T03:51:18;12.30;55.30
63013;DHT22;62113;45.624;11.700;2024-02-21T03:53:44;12.30;55.20
63013;DHT22;62113;45.624;11.700;2024-02-21T03:56:09;12.30;55.10
63013;DHT22;62113;45.624;11.700;2024-02-21T03:58:35;12.30;55.00
63013;DHT22;62113;45.624;11.700;2024-02-21T04:01:01;12.30;54.90
63013;DHT22;62113;45.624;11.700;2024-02-21T04:03:27;12.30;54.80
63013;DHT22;62113;45.624;11.700;2024-02-21T04:05:53;12.30;54.80
63013;DHT22;62113;45.624;11.700;2024-02-21T04:08:19;12.30;54.60
63013;DHT22;62113;45.624;11.700;2024-02-21T04:10:44;12.30;54.50
63013;DHT22;62113;45.624;11.700;2024-02-21T04:13:10;12.20;54.50
63013;DHT22;62113;45.624;11.700;2024-02-21T04:15:36;12.20;54.40
63013;DHT22;62113;45.624;11.700;2024-02-21T04:18:02;12.20;54.30
63013;DHT22;62113;45.624;11.700;2024-02-21T04:20:29;12.10;54.20
63013;DHT22;62113;45.624;11.700;2024-02-21T04:22:55;12.10;54.20
63013;DHT22;62113;45.624;11.700;2024-02-21T04:25:21;12.00;54.30
63013;DHT22;62113;45.624;11.700;2024-02-21T04:27:46;12.00;54.40
63013;DHT22;62113;45.624;11.700;2024-02-21T04:30:12;12.00;54.50
63013;DHT22;62113;45.624;11.700;2024-02-21T04:32:39;12.00;54.60
63013;DHT22;62113;45.624;11.700;2024-02-21T04:35:05;11.90;54.70
63013;DHT22;62113;45.624;11.700;2024-02-21T04:37:30;11.90;54.80
63013;DHT22;62113;45.624;11.700;2024-02-21T04:39:56;11.90;54.80
63013;DHT22;62113;45.624;11.700;2024-02-21T04:42:22;12.00;54.90
63013;DHT22;62113;45.624;11.700;2024-02-21T04:44:47;12.00;54.90
63013;DHT22;62113;45.624;11.700;2024-02-21T04:47:13;12.00;54.80
63013;DHT22;62113;45.624;11.700;2024-02-21T04:49:39;12.00;54.70
63013;DHT22;62113;45.624;11.700;2024-02-21T04:52:05;12.00;54.70
63013;DHT22;62113;45.624;11.700;2024-02-21T04:54:30;12.00;54.80
63013;DHT22;62113;45.624;11.700;2024-02-21T04:56:56;12.00;54.90
63013;DHT22;62113;45.624;11.700;2024-02-21T04:59:21;12.00;55.00
63013;DHT22;62113;45.624;11.700;2024-02-21T05:01:47;12.00;55.10
63013;DHT22;62113;45.624;11.700;2024-02-21T05:04:13;12.00;55.10
63013;DHT22;62113;45.624;11.700;2024-02-21T05:06:39;12.00;55.10
63013;DHT22;62113;45.624;11.700;2024-02-21T05:09:06;12.00;55.20
63013;DHT22;62113;45.624;11.700;2024-02-21T05:11:31;11.90;55.20
63013;DHT22;62113;45.624;11.700;2024-02-21T05:13:57;12.00;55.30
63013;DHT22;62113;45.624;11.700;2024-02-21T05:16:23;11.90;55.30
63013;DHT22;62113;45.624;11.700;2024-02-21T05:18:48;11.90;55.40
63013;DHT22;62113;45.624;11.700;2024-02-21T05:21:14;11.90;55.40
63013;DHT22;62113;45.624;11.700;2024-02-21T05:23:40;12.00;55.40
63013;DHT22;62113;45.624;11.700;2024-02-21T05:26:06;12.00;55.50
63013;DHT22;62113;45.624;11.700;2024-02-21T05:28:32;12.00;55.50
63013;DHT22;62113;45.624;11.700;2024-02-21T05:30:58;12.00;55.40
63013;DHT22;62113;45.624;11.700;2024-02-21T05:33:24;12.00;55.50
63013;DHT22;62113;45.624;11.700;2024-02-21T05:35:50;12.00;55.50
63013;DHT22;62113;45.624;11.700;2024-02-21T05:38:16;12.00;55.50
63013;DHT22;62113;45.624;11.700;2024-02-21T05:40:42;12.00;55.50
63013;DHT22;62113;45.624;11.700;2024-02-21T05:43:08;12.10;55.40
63013;DHT22;62113;45.624;11.700;2024-02-21T05:45:34;12.10;55.30
63013;DHT22;62113;45.624;11.700;2024-02-21T05:48:00;12.20;55.20
63013;DHT22;62113;45.624;11.700;2024-02-21T05:50:26;12.20;55.10
63013;DHT22;62113;45.624;11.700;2024-02-21T05:52:53;12.20;55.00
63013;DHT22;62113;45.624;11.700;2024-02-21T05:55:19;12.20;54.70
63013;DHT22;62113;45.624;11.700;2024-02-21T05:57:45;12.20;54.60
63013;DHT22;62113;45.624;11.700;2024-02-21T06:00:10;12.20;54.50
63013;DHT22;62113;45.624;11.700;2024-02-21T06:02:36;12.20;54.40
63013;DHT22;62113;45.624;11.700;2024-02-21T06:05:02;12.10;54.40
63013;DHT22;62113;45.624;11.700;2024-02-21T06:07:27;12.10;54.30
63013;DHT22;62113;45.624;11.700;2024-02-21T06:09:53;12.00;54.40
63013;DHT22;62113;45.624;11.700;2024-02-21T06:12:19;12.00;54.40
63013;DHT22;62113;45.624;11.700;2024-02-21T06:14:45;12.00;54.50
63013;DHT22;62113;45.624;11.700;2024-02-21T06:17:10;12.00;54.50
63013;DHT22;62113;45.624;11.700;2024-02-21T06:19:40;12.00;54.40
63013;DHT22;62113;45.624;11.700;2024-02-21T06:22:06;12.00;54.40
63013;DHT22;62113;45.624;11.700;2024-02-21T06:24:34;12.00;54.40
63013;DHT22;62113;45.624;11.700;2024-02-21T06:26:59;12.00;54.50
63013;DHT22;62113;45.624;11.700;2024-02-21T06:29:25;12.10;54.40
63013;DHT22;62113;45.624;11.700;2024-02-21T06:31:50;12.10;54.40
63013;DHT22;62113;45.624;11.700;2024-02-21T06:34:16;12.20;54.30
63013;DHT22;62113;45.624;11.700;2024-02-21T06:36:42;12.20;54.50
63013;DHT22;62113;45.624;11.700;2024-02-21T06:39:08;12.40;54.60
63013;DHT22;62113;45.624;11.700;2024-02-21T06:41:33;12.70;54.40
63013;DHT22;62113;45.624;11.700;2024-02-21T06:43:59;12.90;53.90
63013;DHT22;62113;45.624;11.700;2024-02-21T06:46:29;13.00;53.30
63013;DHT22;62113;45.624;11.700;2024-02-21T06:48:55;13.00;52.80
63013;DHT22;62113;45.624;11.700;2024-02-21T06:51:22;13.10;52.40
63013;DHT22;62113;45.624;11.700;2024-02-21T06:53:48;13.20;52.00
63013;DHT22;62113;45.624;11.700;2024-02-21T06:56:13;13.20;51.90
63013;DHT22;62113;45.624;11.700;2024-02-21T06:58:39;13.20;51.80
63013;DHT22;62113;45.624;11.700;2024-02-21T07:01:05;13.40;51.70
63013;DHT22;62113;45.624;11.700;2024-02-21T07:03:31;13.60;51.80
63013;DHT22;62113;45.624;11.700;2024-02-21T07:05:57;14.10;51.70
63013;DHT22;62113;45.624;11.700;2024-02-21T07:08:22;14.60;51.00
63013;DHT22;62113;45.624;11.700;2024-02-21T07:10:48;15.00;50.20
63013;DHT22;62113;45.624;11.700;2024-02-21T07:13:13;15.20;49.10
63013;DHT22;62113;45.624;11.700;2024-02-21T07:15:41;15.50;48.70
63013;DHT22;62113;45.624;11.700;2024-02-21T07:18:06;15.60;47.90
63013;DHT22;62113;45.624;11.700;2024-02-21T07:20:32;15.60;47.70
63013;DHT22;62113;45.624;11.700;2024-02-21T07:23:03;15.70;47.90
63013;DHT22;62113;45.624;11.700;2024-02-21T07:25:28;15.80;47.40
63013;DHT22;62113;45.624;11.700;2024-02-21T07:27:54;15.90;47.70
63013;DHT22;62113;45.624;11.700;2024-02-21T07:30:20;16.00;47.90
63013;DHT22;62113;45.624;11.700;2024-02-21T07:32:48;16.10;47.60
63013;DHT22;62113;45.624;11.700;2024-02-21T07:35:14;16.20;47.60
63013;DHT22;62113;45.624;11.700;2024-02-21T07:37:39;16.40;46.40
63013;DHT22;62113;45.624;11.700;2024-02-21T07:40:06;16.50;46.30
63013;DHT22;62113;45.624;11.700;2024-02-21T07:42:32;16.60;45.80
63013;DHT22;62113;45.624;11.700;2024-02-21T07:44:58;16.70;45.40
63013;DHT22;62113;45.624;11.700;2024-02-21T07:47:24;16.70;46.30
63013;DHT22;62113;45.624;11.700;2024-02-21T07:49:49;16.80;45.60
63013;DHT22;62113;45.624;11.700;2024-02-21T07:52:15;16.70;45.50
63013;DHT22;62113;45.624;11.700;2024-02-21T07:54:41;16.80;45.20
63013;DHT22;62113;45.624;11.700;2024-02-21T07:57:07;16.70;45.60
63013;DHT22;62113;45.624;11.700;2024-02-21T07:59:33;16.70;46.10
63013;DHT22;62113;45.624;11.700;2024-02-21T08:01:59;16.80;46.00
63013;DHT22;62113;45.624;11.700;2024-02-21T08:04:25;17.10;45.80
63013;DHT22;62113;45.624;11.700;2024-02-21T08:06:52;17.40;47.00
63013;DHT22;62113;45.624;11.700;2024-02-21T08:09:19;17.80;45.40
63013;DHT22;62113;45.624;11.700;2024-02-21T08:11:44;18.20;44.70
63013;DHT22;62113;45.624;11.700;2024-02-21T08:14:10;18.50;43.50
63013;DHT22;62113;45.624;11.700;2024-02-21T08:16:35;18.80;42.90
63013;DHT22;62113;45.624;11.700;2024-02-21T08:19:01;19.00;42.70
63013;DHT22;62113;45.624;11.700;2024-02-21T08:21:29;19.20;42.20
63013;DHT22;62113;45.624;11.700;2024-02-21T08:23:55;19.40;41.70
63013;DHT22;62113;45.624;11.700;2024-02-21T08:26:20;19.70;42.10
63013;DHT22;62113;45.624;11.700;2024-02-21T08:28:46;20.10;42.30
63013;DHT22;62113;45.624;11.700;2024-02-21T08:31:18;20.40;39.70
63013;DHT22;62113;45.624;11.700;2024-02-21T08:33:44;20.80;40.60
63013;DHT22;62113;45.624;11.700;2024-02-21T08:36:20;21.30;38.80
63013;DHT22;62113;45.624;11.700;2024-02-21T08:38:46;21.70;38.40
63013;DHT22;62113;45.624;11.700;2024-02-21T08:41:11;22.10;35.30
63013;DHT22;62113;45.624;11.700;2024-02-21T08:43:37;22.50;35.10
63013;DHT22;62113;45.624;11.700;2024-02-21T08:46:04;23.10;34.90
63013;DHT22;62113;45.624;11.700;2024-02-21T08:48:30;23.70;35.40
63013;DHT22;62113;45.624;11.700;2024-02-21T08:50:56;24.40;33.50
63013;DHT22;62113;45.624;11.700;2024-02-21T08:53:21;25.10;33.20
63013;DHT22;62113;45.624;11.700;2024-02-21T08:55:47;25.80;31.70
63013;DHT22;62113;45.624;11.700;2024-02-21T08:58:12;26.40;29.60
63013;DHT22;62113;45.624;11.700;2024-02-21T09:00:40;26.90;30.40
63013;DHT22;62113;45.624;11.700;2024-02-21T09:03:05;27.60;27.70
63013;DHT22;62113;45.624;11.700;2024-02-21T09:05:31;28.10;27.50
63013;DHT22;62113;45.624;11.700;2024-02-21T09:07:57;28.60;27.00
63013;DHT22;62113;45.624;11.700;2024-02-21T09:10:23;29.10;25.60
63013;DHT22;62113;45.624;11.700;2024-02-21T09:12:49;29.40;27.50
63013;DHT22;62113;45.624;11.700;2024-02-21T09:15:15;29.90;26.80
63013;DHT22;62113;45.624;11.700;2024-02-21T09:17:40;30.20;25.40
63013;DHT22;62113;45.624;11.700;2024-02-21T09:20:07;30.30;24.60
63013;DHT22;62113;45.624;11.700;2024-02-21T09:22:33;30.60;23.70
63013;DHT22;62113;45.624;11.700;2024-02-21T09:25:00;30.80;23.60
63013;DHT22;62113;45.624;11.700;2024-02-21T09:27:26;31.10;23.00
63013;DHT22;62113;45.624;11.700;2024-02-21T09:29:51;31.30;24.30
63013;DHT22;62113;45.624;11.700;2024-02-21T09:32:18;31.40;23.70
63013;DHT22;62113;45.624;11.700;2024-02-21T09:34:44;31.60;23.10
63013;DHT22;62113;45.624;11.700;2024-02-21T09:37:10;31.80;22.40
63013;DHT22;62113;45.624;11.700;2024-02-21T09:39:36;32.00;23.20
63013;DHT22;62113;45.624;11.700;2024-02-21T09:42:11;32.10;21.20
63013;DHT22;62113;45.624;11.700;2024-02-21T09:44:37;32.00;21.10
63013;DHT22;62113;45.624;11.700;2024-02-21T09:47:48;31.90;21.90
63013;DHT22;62113;45.624;11.700;2024-02-21T09:50:16;31.50;22.50
63013;DHT22;62113;45.624;11.700;2024-02-21T09:52:43;31.30;22.80
63013;DHT22;62113;45.624;11.700;2024-02-21T09:55:09;31.00;22.90
63013;DHT22;62113;45.624;11.700;2024-02-21T09:57:38;30.30;23.90
63013;DHT22;62113;45.624;11.700;2024-02-21T10:00:05;29.80;24.30
63013;DHT22;62113;45.624;11.700;2024-02-21T10:02:33;29.30;25.10
63013;DHT22;62113;45.624;11.700;2024-02-21T10:04:59;28.80;25.60
63013;DHT22;62113;45.624;11.700;2024-02-21T10:07:24;28.30;25.70
63013;DHT22;62113;45.624;11.700;2024-02-21T10:10:00;27.80;26.90
63013;DHT22;62113;45.624;11.700;2024-02-21T10:12:26;27.40;27.10
63013;DHT22;62113;45.624;11.700;2024-02-21T10:15:04;27.10;28.30
63013;DHT22;62113;45.624;11.700;2024-02-21T10:17:30;26.60;28.00
63013;DHT22;62113;45.624;11.700;2024-02-21T10:20:09;26.10;28.60
63013;DHT22;62113;45.624;11.700;2024-02-21T10:22:35;25.70;28.60
63013;DHT22;62113;45.624;11.700;2024-02-21T10:25:12;25.50;29.00
63013;DHT22;62113;45.624;11.700;2024-02-21T10:27:39;25.20;29.60
63013;DHT22;62113;45.624;11.700;2024-02-21T10:30:05;25.00;30.40
63013;DHT22;62113;45.624;11.700;2024-02-21T10:32:31;24.70;30.20
63013;DHT22;62113;45.624;11.700;2024-02-21T10:35:03;24.50;30.80
63013;DHT22;62113;45.624;11.700;2024-02-21T10:37:31;24.20;30.80
63013;DHT22;62113;45.624;11.700;2024-02-21T10:39:57;24.00;31.10
63013;DHT22;62113;45.624;11.700;2024-02-21T10:42:29;23.70;30.60
63013;DHT22;62113;45.624;11.700;2024-02-21T10:45:00;23.30;31.40
63013;DHT22;62113;45.624;11.700;2024-02-21T10:47:25;23.10;31.80
63013;DHT22;62113;45.624;11.700;2024-02-21T10:49:59;22.90;32.00
63013;DHT22;62113;45.624;11.700;2024-02-21T10:52:56;22.70;32.40
63013;DHT22;62113;45.624;11.700;2024-02-21T10:55:36;22.70;33.10
63013;DHT22;62113;45.624;11.700;2024-02-21T10:58:04;22.70;33.40
63013;DHT22;62113;45.624;11.700;2024-02-21T11:00:30;22.60;33.80
63013;DHT22;62113;45.624;11.700;2024-02-21T11:02:58;22.30;33.50
63013;DHT22;62113;45.624;11.700;2024-02-21T11:05:25;22.20;33.80
63013;DHT22;62113;45.624;11.700;2024-02-21T11:07:53;22.00;33.90
63013;DHT22;62113;45.624;11.700;2024-02-21T11:10:26;22.00;34.40
63013;DHT22;62113;45.624;11.700;2024-02-21T11:13:08;22.00;34.70
63013;DHT22;62113;45.624;11.700;2024-02-21T11:15:34;22.20;34.60
63013;DHT22;62113;45.624;11.700;2024-02-21T11:17:59;21.90;33.70
63013;DHT22;62113;45.624;11.700;2024-02-21T11:20:35;21.70;33.90
63013;DHT22;62113;45.624;11.700;2024-02-21T11:23:01;21.70;34.60
63013;DHT22;62113;45.624;11.700;2024-02-21T11:25:28;21.50;34.40
63013;DHT22;62113;45.624;11.700;2024-02-21T11:28:03;21.40;35.10
63013;DHT22;62113;45.624;11.700;2024-02-21T11:30:35;21.30;35.20
63013;DHT22;62113;45.624;11.700;2024-02-21T11:33:02;21.40;35.30
63013;DHT22;62113;45.624;11.700;2024-02-21T11:35:34;21.40;35.10
63013;DHT22;62113;45.624;11.700;2024-02-21T11:38:13;21.40;35.10
63013;DHT22;62113;45.624;11.700;2024-02-21T11:40:45;21.30;34.70
63013;DHT22;62113;45.624;11.700;2024-02-21T11:43:11;21.30;35.00
63013;DHT22;62113;45.624;11.700;2024-02-21T11:45:36;21.00;35.00
63013;DHT22;62113;45.624;11.700;2024-02-21T11:48:04;20.90;35.50
63013;DHT22;62113;45.624;11.700;2024-02-21T11:50:31;20.90;35.90
63013;DHT22;62113;45.624;11.700;2024-02-21T11:52:57;21.00;36.00
63013;DHT22;62113;45.624;11.700;2024-02-21T11:55:23;21.00;35.60
63013;DHT22;62113;45.624;11.700;2024-02-21T11:57:49;20.90;35.90
63013;DHT22;62113;45.624;11.700;2024-02-21T12:00:19;20.90;36.10
63013;DHT22;62113;45.624;11.700;2024-02-21T12:02:50;20.90;36.00
63013;DHT22;62113;45.624;11.700;2024-02-21T12:05:16;20.80;36.40
63013;DHT22;62113;45.624;11.700;2024-02-21T12:07:44;20.90;37.10
63013;DHT22;62113;45.624;11.700;2024-02-21T12:10:11;21.00;37.10
63013;DHT22;62113;45.624;11.700;2024-02-21T12:12:37;21.00;36.40
63013;DHT22;62113;45.624;11.700;2024-02-21T12:15:04;21.00;36.50
63013;DHT22;62113;45.624;11.700;2024-02-21T12:17:36;21.00;36.60
63013;DHT22;62113;45.624;11.700;2024-02-21T12:20:03;20.80;36.60
63013;DHT22;62113;45.624;11.700;2024-02-21T12:22:31;20.70;36.90
63013;DHT22;62113;45.624;11.700;2024-02-21T12:24:58;20.60;37.30
63013;DHT22;62113;45.624;11.700;2024-02-21T12:27:24;20.60;37.50
63013;DHT22;62113;45.624;11.700;2024-02-21T12:29:50;20.60;37.80
63013;DHT22;62113;45.624;11.700;2024-02-21T12:32:16;20.60;37.80
63013;DHT22;62113;45.624;11.700;2024-02-21T12:34:42;20.60;37.80
63013;DHT22;62113;45.624;11.700;2024-02-21T12:37:07;20.70;38.20
63013;DHT22;62113;45.624;11.700;2024-02-21T12:39:33;20.70;38.70
63013;DHT22;62113;45.624;11.700;2024-02-21T12:41:59;20.70;38.60
63013;DHT22;62113;45.624;11.700;2024-02-21T12:44:25;20.70;38.20
63013;DHT22;62113;45.624;11.700;2024-02-21T12:46:50;20.70;37.50
63013;DHT22;62113;45.624;11.700;2024-02-21T12:49:19;20.60;37.80
63013;DHT22;62113;45.624;11.700;2024-02-21T12:51:44;20.50;38.10
63013;DHT22;62113;45.624;11.700;2024-02-21T12:54:12;20.50;38.40
63013;DHT22;62113;45.624;11.700;2024-02-21T12:56:38;20.60;38.60
63013;DHT22;62113;45.624;11.700;2024-02-21T12:59:05;20.70;38.60
63013;DHT22;62113;45.624;11.700;2024-02-21T13:01:33;20.70;38.10
63013;DHT22;62113;45.624;11.700;2024-02-21T13:03:58;20.60;37.80
63013;DHT22;62113;45.624;11.700;2024-02-21T13:06:26;20.60;38.30
63013;DHT22;62113;45.624;11.700;2024-02-21T13:08:51;20.60;38.40
63013;DHT22;62113;45.624;11.700;2024-02-21T13:11:17;20.60;38.40
63013;DHT22;62113;45.624;11.700;2024-02-21T13:13:43;20.60;38.30
63013;DHT22;62113;45.624;11.700;2024-02-21T13:16:08;20.50;38.20
63013;DHT22;62113;45.624;11.700;2024-02-21T13:18:35;20.40;39.50
63013;DHT22;62113;45.624;11.700;2024-02-21T13:21:04;20.30;38.50
63013;DHT22;62113;45.624;11.700;2024-02-21T13:23:29;20.30;38.80
63013;DHT22;62113;45.624;11.700;2024-02-21T13:25:55;20.30;38.90
63013;DHT22;62113;45.624;11.700;2024-02-21T13:28:21;20.20;39.70
63013;DHT22;62113;45.624;11.700;2024-02-21T13:30:46;20.20;39.30
63013;DHT22;62113;45.624;11.700;2024-02-21T13:33:12;20.10;39.70
63013;DHT22;62113;45.624;11.700;2024-02-21T13:35:38;20.00;39.80
63013;DHT22;62113;45.624;11.700;2024-02-21T13:38:04;20.00;40.20
63013;DHT22;62113;45.624;11.700;2024-02-21T13:40:30;20.00;40.30
63013;DHT22;62113;45.624;11.700;2024-02-21T13:42:56;19.90;40.30
63013;DHT22;62113;45.624;11.700;2024-02-21T13:45:21;20.00;40.30
63013;DHT22;62113;45.624;11.700;2024-02-21T13:47:47;20.10;40.20
63013;DHT22;62113;45.624;11.700;2024-02-21T13:50:13;20.10;40.20
63013;DHT22;62113;45.624;11.700;2024-02-21T13:52:42;20.20;40.10
63013;DHT22;62113;45.624;11.700;2024-02-21T13:55:08;20.10;40.00
63013;DHT22;62113;45.624;11.700;2024-02-21T13:57:38;20.10;40.10
63013;DHT22;62113;45.624;11.700;2024-02-21T14:00:07;20.00;40.30
63013;DHT22;62113;45.624;11.700;2024-02-21T14:02:36;19.90;40.30
63013;DHT22;62113;45.624;11.700;2024-02-21T14:05:02;19.90;40.80
63013;DHT22;62113;45.624;11.700;2024-02-21T14:07:31;20.00;40.90
63013;DHT22;62113;45.624;11.700;2024-02-21T14:09:58;20.00;41.10
63013;DHT22;62113;45.624;11.700;2024-02-21T14:12:24;20.10;41.30
63013;DHT22;62113;45.624;11.700;2024-02-21T14:14:49;20.10;41.10
63013;DHT22;62113;45.624;11.700;2024-02-21T14:17:15;20.10;41.30
63013;DHT22;62113;45.624;11.700;2024-02-21T14:19:41;20.00;41.20
63013;DHT22;62113;45.624;11.700;2024-02-21T14:22:07;20.00;41.20
63013;DHT22;62113;45.624;11.700;2024-02-21T14:24:32;20.10;41.40
63013;DHT22;62113;45.624;11.700;2024-02-21T14:26:58;20.00;41.40
63013;DHT22;62113;45.624;11.700;2024-02-21T14:29:25;20.00;41.80
63013;DHT22;62113;45.624;11.700;2024-02-21T14:31:50;19.90;41.80
63013;DHT22;62113;45.624;11.700;2024-02-21T14:34:16;19.80;43.10
63013;DHT22;62113;45.624;11.700;2024-02-21T14:36:42;19.70;42.70
63013;DHT22;62113;45.624;11.700;2024-02-21T14:39:07;19.70;43.10
63013;DHT22;62113;45.624;11.700;2024-02-21T14:41:33;19.60;43.40
63013;DHT22;62113;45.624;11.700;2024-02-21T14:44:00;19.50;43.50
63013;DHT22;62113;45.624;11.700;2024-02-21T14:46:27;19.40;43.60
63013;DHT22;62113;45.624;11.700;2024-02-21T14:48:55;19.30;44.10
63013;DHT22;62113;45.624;11.700;2024-02-21T14:51:21;19.30;44.30
63013;DHT22;62113;45.624;11.700;2024-02-21T14:53:46;19.20;45.00
63013;DHT22;62113;45.624;11.700;2024-02-21T14:56:13;19.10;44.90
63013;DHT22;62113;45.624;11.700;2024-02-21T14:58:40;19.00;44.30
63013;DHT22;62113;45.624;11.700;2024-02-21T15:01:07;19.00;44.60
63013;DHT22;62113;45.624;11.700;2024-02-21T15:03:33;19.10;44.60
63013;DHT22;62113;45.624;11.700;2024-02-21T15:05:59;19.20;44.50
63013;DHT22;62113;45.624;11.700;2024-02-21T15:08:26;19.20;43.50
63013;DHT22;62113;45.624;11.700;2024-02-21T15:10:53;19.30;43.10